Hauptseite
METAR-TAF:

METAR-TAF

Flughäfen :

Faßberg, Deutschland

Fliegerhorst Faßberg

Breite: 52-55N, Länge: 010-11E, Höhe: 75 m

Beobachtung

Neuester Wetterbericht von vor 29 Minuten, um 13:20 UTC
Wind 17 kt aus Ost/Südost, Böen bis zu 27 kt
Temperatur 1°C
Luftfeuchtigkeit 40%
Luftdruck 1030 hPa
Sichtweite 10 km oder mehr
Aufgelockert bewölkt in der Höhe von 4500 ft
Aufgelockert bewölkt in der Höhe von 18000 ft

METAR: ETHS 241320Z 11017G27KT 9999 SCT045 SCT180 01/M11 Q1030 BLU+

Zeit: 14:49 (13:49 UTC)

Prognose

Neuester Wetterbericht von vor 27 Stunden und 17 Minuten, um 10:32 UTC
Gültige Prognose vom 23 um 09 UTC bis 23 um 18 UTC
Wind 12 kt aus Ost
Sichtweite: 1100 m
Aufgelockert bewölkt in der Höhe von 2500 ft

TAF: ETHS 231032Z 2309/2318 09012KT 9999 NSW SCT025 CANCEL 1100

Wetterbeobachtungen und Prognosen von mehr als 4000 Flughäfen (METAR und TAF Bericht).

Die verfügbaren Stationen werden durch gelbe und rote Markierungen auf der Karte dargestellt.

Führen Sie die Maus auf sie, um den Namen der Station zu sehen.

Darauf klicken, um die Beobachtung von Wetterbeobachtungen und Prognosen zu sehen.

Um die Karte zu ändern : klicken Sie auf den grünen Tasten mit einem schwarzen Kreuz Zum Vergrößern, auf den grünen Button mit einem Gedankenstrich zu verkleinern, oder auf die grünen Pfeile für benachbarte Karten.


METAR-TAF: